createdAt,value
2017-07-23T00:00:09.508Z,0
2017-07-23T00:01:10.211Z,0
2017-07-23T00:02:11.162Z,0
2017-07-23T00:03:11.868Z,0
2017-07-23T00:04:12.571Z,0
2017-07-23T00:05:13.274Z,0
2017-07-23T00:06:13.979Z,0
2017-07-23T00:07:14.932Z,0
2017-07-23T00:08:15.638Z,0
2017-07-23T00:09:16.341Z,0
2017-07-23T00:10:17.044Z,0
2017-07-23T00:11:17.746Z,0
2017-07-23T00:12:18.696Z,0
2017-07-23T00:13:19.399Z,0
2017-07-23T00:14:20.101Z,0
2017-07-23T00:15:20.803Z,0
2017-07-23T00:16:21.508Z,0
2017-07-23T00:17:22.459Z,0
2017-07-23T00:18:23.157Z,0
2017-07-23T00:19:23.860Z,0
2017-07-23T00:20:24.565Z,0
2017-07-23T00:21:25.268Z,0
2017-07-23T00:22:26.221Z,0
2017-07-23T00:23:26.928Z,0
2017-07-23T00:24:27.630Z,0
2017-07-23T00:25:28.329Z,0
2017-07-23T00:26:29.031Z,0
2017-07-23T00:27:29.985Z,0
2017-07-23T00:28:30.687Z,0
2017-07-23T00:29:31.393Z,0
2017-07-23T00:30:32.095Z,0
2017-07-23T00:31:32.794Z,0
2017-07-23T00:32:33.746Z,0
2017-07-23T00:33:34.452Z,0
2017-07-23T00:34:35.157Z,0
2017-07-23T00:35:35.860Z,0
2017-07-23T00:36:36.562Z,0
2017-07-23T00:37:37.514Z,0
2017-07-23T00:38:38.216Z,0
2017-07-23T00:39:38.937Z,0
2017-07-23T00:40:39.639Z,0
2017-07-23T00:41:40.341Z,0
2017-07-23T00:42:41.295Z,0
2017-07-23T00:43:41.996Z,0
2017-07-23T00:44:42.703Z,0
2017-07-23T00:45:43.403Z,0
2017-07-23T00:46:44.103Z,0
2017-07-23T00:47:45.050Z,0
2017-07-23T00:48:45.756Z,0
2017-07-23T00:49:46.450Z,0
2017-07-23T00:50:47.151Z,0
2017-07-23T00:51:47.861Z,0
2017-07-23T00:52:48.562Z,0
2017-07-23T00:53:49.264Z,0
2017-07-23T00:54:49.964Z,0
2017-07-23T00:55:50.667Z,0
2017-07-23T00:56:51.364Z,0
2017-07-23T00:57:52.312Z,0
2017-07-23T00:58:53.014Z,0
2017-07-23T00:59:53.713Z,0
2017-07-23T01:00:54.410Z,0
2017-07-23T01:01:55.120Z,0
2017-07-23T01:02:56.073Z,0
2017-07-23T01:03:56.772Z,0
2017-07-23T01:04:57.473Z,0
2017-07-23T01:05:58.170Z,0
2017-07-23T01:06:58.866Z,0
2017-07-23T01:07:59.836Z,0
2017-07-23T01:09:00.540Z,0
2017-07-23T01:10:01.251Z,0
2017-07-23T01:11:01.954Z,0
2017-07-23T01:12:02.657Z,0
2017-07-23T01:13:03.610Z,0
2017-07-23T01:14:04.313Z,0
2017-07-23T01:15:05.018Z,0
2017-07-23T01:16:05.720Z,0
2017-07-23T01:17:06.424Z,0
2017-07-23T01:18:07.376Z,0
2017-07-23T01:19:08.073Z,0
2017-07-23T01:20:08.771Z,0
2017-07-23T01:21:09.473Z,0
2017-07-23T01:22:10.175Z,0
2017-07-23T01:23:11.128Z,0
2017-07-23T01:24:11.825Z,0
2017-07-23T01:25:12.532Z,0
2017-07-23T01:26:13.230Z,0
2017-07-23T01:27:13.929Z,0
2017-07-23T01:28:14.880Z,0
2017-07-23T01:29:15.578Z,0
2017-07-23T01:30:16.280Z,0
2017-07-23T01:31:16.982Z,0
2017-07-23T01:32:17.677Z,0
2017-07-23T01:33:18.376Z,0
2017-07-23T01:34:19.072Z,0
2017-07-23T01:35:19.772Z,0
2017-07-23T01:36:20.485Z,0
2017-07-23T01:37:21.186Z,0
2017-07-23T01:38:22.138Z,0
2017-07-23T01:39:22.846Z,0
2017-07-23T01:40:23.548Z,0
2017-07-23T01:41:24.251Z,0
2017-07-23T01:42:24.970Z,0
2017-07-23T01:43:25.926Z,0
2017-07-23T01:44:26.626Z,0
2017-07-23T01:45:27.327Z,0
2017-07-23T01:46:28.029Z,0
2017-07-23T01:47:28.736Z,0
2017-07-23T01:48:29.688Z,0
2017-07-23T01:49:30.389Z,0
2017-07-23T01:50:31.088Z,0
2017-07-23T01:51:31.791Z,0
2017-07-23T01:52:32.489Z,0
2017-07-23T01:53:33.441Z,0
2017-07-23T01:54:34.143Z,0
2017-07-23T01:55:34.846Z,0
2017-07-23T01:56:35.548Z,0
2017-07-23T01:57:36.242Z,0
2017-07-23T01:58:37.195Z,0
2017-07-23T01:59:37.893Z,0
2017-07-23T02:00:38.595Z,0
2017-07-23T02:01:39.297Z,0
2017-07-23T02:02:39.995Z,0
2017-07-23T02:03:40.695Z,0
2017-07-23T02:04:41.393Z,0
2017-07-23T02:05:42.094Z,0
2017-07-23T02:06:42.796Z,0
2017-07-23T02:07:43.493Z,0
2017-07-23T02:08:44.446Z,0
2017-07-23T02:09:45.146Z,0
2017-07-23T02:10:45.849Z,0
2017-07-23T02:11:46.551Z,0
2017-07-23T02:12:47.253Z,0
2017-07-23T02:13:47.953Z,0
2017-07-23T02:14:48.656Z,0
2017-07-23T02:15:49.355Z,0
2017-07-23T02:16:50.054Z,0
2017-07-23T02:17:50.754Z,0
2017-07-23T02:18:51.710Z,0
2017-07-23T02:19:52.415Z,0
2017-07-23T02:20:53.115Z,0
2017-07-23T02:21:53.814Z,0
2017-07-23T02:22:54.515Z,0
2017-07-23T02:23:55.468Z,0
2017-07-23T02:24:56.170Z,0
2017-07-23T02:25:56.871Z,0
2017-07-23T02:26:57.574Z,0
2017-07-23T02:27:58.271Z,0
2017-07-23T02:28:59.216Z,0
2017-07-23T02:29:59.920Z,0
2017-07-23T02:31:00.623Z,0
2017-07-23T02:32:01.321Z,0
2017-07-23T02:33:02.029Z,0
2017-07-23T02:34:02.980Z,0
2017-07-23T02:35:03.681Z,0
2017-07-23T02:36:04.379Z,0
2017-07-23T02:37:05.082Z,0
2017-07-23T02:38:05.785Z,0
2017-07-23T02:39:06.486Z,0
2017-07-23T02:40:07.188Z,0
2017-07-23T02:41:07.889Z,0
2017-07-23T02:42:08.591Z,0
2017-07-23T02:43:09.297Z,0
2017-07-23T02:44:10.248Z,0
2017-07-23T02:45:10.946Z,0
2017-07-23T02:46:11.650Z,0
2017-07-23T02:47:12.358Z,0
2017-07-23T02:48:13.059Z,0
2017-07-23T02:49:14.011Z,0
2017-07-23T02:50:14.713Z,0
2017-07-23T02:51:15.426Z,0
2017-07-23T02:52:16.133Z,0
2017-07-23T02:53:16.836Z,0
2017-07-23T02:54:17.787Z,0
2017-07-23T02:55:18.490Z,0
2017-07-23T02:56:19.187Z,0
2017-07-23T02:57:19.891Z,0
2017-07-23T02:58:20.592Z,0
2017-07-23T02:59:21.545Z,0
2017-07-23T03:00:22.250Z,0
2017-07-23T03:01:22.956Z,0
2017-07-23T03:02:23.658Z,0
2017-07-23T03:03:24.364Z,0
2017-07-23T03:04:25.257Z,0
2017-07-23T03:05:26.018Z,0
2017-07-23T03:06:26.720Z,0
2017-07-23T03:07:27.420Z,0
2017-07-23T03:08:28.121Z,0
2017-07-23T03:09:29.073Z,0
2017-07-23T03:10:29.772Z,0
2017-07-23T03:11:30.470Z,0
2017-07-23T03:12:31.169Z,0
2017-07-23T03:13:31.880Z,0
2017-07-23T03:14:32.831Z,0
2017-07-23T03:15:33.532Z,0
2017-07-23T03:16:34.234Z,0
2017-07-23T03:17:34.938Z,0
2017-07-23T03:18:35.640Z,0
2017-07-23T03:19:36.594Z,0
2017-07-23T03:20:37.296Z,0
2017-07-23T03:21:38.003Z,0
2017-07-23T03:22:38.707Z,0
2017-07-23T03:23:39.417Z,0
2017-07-23T03:24:40.369Z,0
2017-07-23T03:25:41.070Z,0
2017-07-23T03:26:41.774Z,0
2017-07-23T03:27:42.477Z,0
2017-07-23T03:28:43.182Z,0
2017-07-23T03:29:44.183Z,0
2017-07-23T03:30:44.884Z,0
2017-07-23T03:31:45.583Z,0
2017-07-23T03:32:46.285Z,0
2017-07-23T03:33:46.983Z,0
2017-07-23T03:34:47.931Z,0
2017-07-23T03:35:48.629Z,0
2017-07-23T03:36:49.331Z,0
2017-07-23T03:37:50.058Z,0
2017-07-23T03:38:50.758Z,0
2017-07-23T03:39:51.707Z,0
2017-07-23T03:40:52.412Z,0
2017-07-23T03:41:53.118Z,0
2017-07-23T03:42:53.824Z,0
2017-07-23T03:43:54.526Z,0
2017-07-23T03:44:55.226Z,0
2017-07-23T03:45:55.926Z,0
2017-07-23T03:46:56.634Z,0
2017-07-23T03:47:57.334Z,0
2017-07-23T03:48:58.034Z,0
2017-07-23T03:49:58.986Z,0
2017-07-23T03:50:59.688Z,0
2017-07-23T03:52:00.391Z,0
2017-07-23T03:53:01.093Z,0
2017-07-23T03:54:01.804Z,0
2017-07-23T03:55:02.756Z,0
2017-07-23T03:56:03.458Z,0
2017-07-23T03:57:04.152Z,0
2017-07-23T03:58:04.856Z,0
2017-07-23T03:59:05.558Z,0
2017-07-23T04:00:06.508Z,0
2017-07-23T04:01:07.210Z,0
2017-07-23T04:02:07.910Z,0
2017-07-23T04:03:08.613Z,0
2017-07-23T04:04:09.314Z,0
2017-07-23T04:05:10.268Z,0
2017-07-23T04:06:10.966Z,0
2017-07-23T04:07:11.668Z,0
2017-07-23T04:08:12.370Z,0
2017-07-23T04:09:13.074Z,0
2017-07-23T04:10:13.778Z,0
2017-07-23T04:11:14.480Z,0
2017-07-23T04:12:15.182Z,0
2017-07-23T04:13:15.893Z,0
2017-07-23T04:14:16.601Z,0
2017-07-23T04:15:17.550Z,0
2017-07-23T04:16:18.247Z,0
2017-07-23T04:17:18.948Z,0
2017-07-23T04:18:19.651Z,0
2017-07-23T04:19:20.354Z,0
2017-07-23T04:20:21.307Z,0
2017-07-23T04:21:22.005Z,0
2017-07-23T04:22:22.706Z,0
2017-07-23T04:23:23.408Z,0
2017-07-23T04:24:24.110Z,0
2017-07-23T04:25:25.061Z,5
2017-07-23T04:26:25.765Z,5
2017-07-23T04:27:26.468Z,5
2017-07-23T04:28:27.168Z,5
2017-07-23T04:29:27.871Z,5
2017-07-23T04:30:28.821Z,5
2017-07-23T04:31:29.525Z,10
2017-07-23T04:32:30.229Z,10
2017-07-23T04:33:30.939Z,10
2017-07-23T04:34:31.641Z,10
2017-07-23T04:35:32.595Z,10
2017-07-23T04:36:33.300Z,15
2017-07-23T04:37:34.011Z,15
2017-07-23T04:38:34.718Z,15
2017-07-23T04:39:35.422Z,20
2017-07-23T04:40:36.373Z,30
2017-07-23T04:41:37.077Z,35
2017-07-23T04:42:37.782Z,35
2017-07-23T04:43:38.484Z,35
2017-07-23T04:44:39.186Z,30
2017-07-23T04:45:40.135Z,30
2017-07-23T04:46:40.838Z,30
2017-07-23T04:47:41.546Z,25
2017-07-23T04:48:42.258Z,30
2017-07-23T04:49:42.958Z,30
2017-07-23T04:50:43.911Z,30
2017-07-23T04:51:44.615Z,25
2017-07-23T04:52:45.320Z,25
2017-07-23T04:53:46.025Z,20
2017-07-23T04:54:46.728Z,15
2017-07-23T04:55:47.680Z,15
2017-07-23T04:56:48.387Z,15
2017-07-23T04:57:49.088Z,20
2017-07-23T04:58:49.788Z,25
2017-07-23T04:59:50.490Z,25
2017-07-23T05:00:51.444Z,30
2017-07-23T05:01:52.151Z,35
2017-07-23T05:02:52.853Z,40
2017-07-23T05:03:53.557Z,35
2017-07-23T05:04:54.261Z,35
2017-07-23T05:05:55.214Z,40
2017-07-23T05:06:55.923Z,50
2017-07-23T05:07:56.628Z,55
2017-07-23T05:08:57.350Z,75
2017-07-23T05:09:58.057Z,80
2017-07-23T05:10:59.014Z,85
2017-07-23T05:11:59.721Z,90
2017-07-23T05:13:00.423Z,95
2017-07-23T05:14:01.128Z,95
2017-07-23T05:15:01.837Z,85
2017-07-23T05:16:02.549Z,70
2017-07-23T05:17:03.251Z,55
2017-07-23T05:18:03.958Z,55
2017-07-23T05:19:04.663Z,50
2017-07-23T05:20:05.365Z,50
2017-07-23T05:21:06.320Z,55
2017-07-23T05:22:07.024Z,60
2017-07-23T05:23:07.731Z,70
2017-07-23T05:24:08.442Z,70
2017-07-23T05:25:09.149Z,75
2017-07-23T05:26:10.107Z,80
2017-07-23T05:27:10.812Z,85
2017-07-23T05:28:11.515Z,85
2017-07-23T05:29:12.222Z,85
2017-07-23T05:30:12.928Z,85
2017-07-23T05:31:13.887Z,85
2017-07-23T05:32:14.592Z,85
2017-07-23T05:33:15.299Z,85
2017-07-23T05:34:16.004Z,90
2017-07-23T05:35:16.713Z,90
2017-07-23T05:36:17.674Z,95
2017-07-23T05:37:18.390Z,95
2017-07-23T05:38:19.099Z,95
2017-07-23T05:39:19.803Z,95
2017-07-23T05:40:20.513Z,95
2017-07-23T05:41:21.225Z,100
2017-07-23T05:42:21.932Z,100
2017-07-23T05:43:22.639Z,105
2017-07-23T05:44:23.343Z,100
2017-07-23T05:45:24.049Z,105
2017-07-23T05:46:25.012Z,105
2017-07-23T05:47:25.719Z,110
2017-07-23T05:48:26.420Z,115
2017-07-23T05:49:27.126Z,125
2017-07-23T05:50:27.836Z,135
2017-07-23T05:51:28.794Z,145
2017-07-23T05:52:29.499Z,150
2017-07-23T05:53:30.209Z,145
2017-07-23T05:54:30.916Z,150
2017-07-23T05:55:31.627Z,150
2017-07-23T05:56:32.578Z,150
2017-07-23T05:57:33.287Z,150
2017-07-23T05:58:33.998Z,150
2017-07-23T05:59:34.700Z,155
2017-07-23T06:00:35.407Z,155
2017-07-23T06:01:36.361Z,150
2017-07-23T06:02:37.080Z,150
2017-07-23T06:03:37.781Z,150
2017-07-23T06:04:38.483Z,150
2017-07-23T06:05:39.184Z,150
2017-07-23T06:06:40.142Z,150
2017-07-23T06:07:40.844Z,145
2017-07-23T06:08:41.552Z,130
2017-07-23T06:09:42.258Z,125
2017-07-23T06:10:42.970Z,115
2017-07-23T06:11:43.929Z,115
2017-07-23T06:12:44.634Z,120
2017-07-23T06:13:45.339Z,120
2017-07-23T06:14:46.054Z,125
2017-07-23T06:15:46.769Z,120
2017-07-23T06:16:47.720Z,120
2017-07-23T06:17:48.433Z,125
2017-07-23T06:18:49.141Z,120
2017-07-23T06:19:49.849Z,130
2017-07-23T06:20:50.558Z,125
2017-07-23T06:21:51.514Z,120
2017-07-23T06:22:52.220Z,120
2017-07-23T06:23:52.926Z,135
2017-07-23T06:24:53.636Z,140
2017-07-23T06:25:54.343Z,140
2017-07-23T06:26:55.300Z,155
2017-07-23T06:27:56.012Z,160
2017-07-23T06:28:56.732Z,155
2017-07-23T06:29:57.447Z,155
2017-07-23T06:30:58.157Z,160
2017-07-23T06:31:59.115Z,150
2017-07-23T06:32:59.818Z,135
2017-07-23T06:34:00.535Z,125
2017-07-23T06:35:01.256Z,125
2017-07-23T06:36:01.961Z,125
2017-07-23T06:37:02.913Z,105
2017-07-23T06:38:03.616Z,90
2017-07-23T06:39:04.322Z,115
2017-07-23T06:40:05.028Z,110
2017-07-23T06:41:05.730Z,105
2017-07-23T06:42:06.683Z,105
2017-07-23T06:43:07.385Z,105
2017-07-23T06:44:08.100Z,105
2017-07-23T06:45:08.806Z,110
2017-07-23T06:46:09.509Z,105
2017-07-23T06:47:10.461Z,100
2017-07-23T06:48:11.168Z,90
2017-07-23T06:49:11.872Z,90
2017-07-23T06:50:12.583Z,75
2017-07-23T06:51:13.293Z,90
2017-07-23T06:52:14.247Z,125
2017-07-23T06:53:14.958Z,130
2017-07-23T06:54:15.663Z,160
2017-07-23T06:55:16.370Z,185
2017-07-23T06:56:17.074Z,210
2017-07-23T06:57:18.029Z,195
2017-07-23T06:58:18.736Z,180
2017-07-23T06:59:19.442Z,170
2017-07-23T07:00:20.144Z,170
2017-07-23T07:01:20.845Z,165
2017-07-23T07:02:21.799Z,150
2017-07-23T07:03:22.507Z,130
2017-07-23T07:04:23.218Z,90
2017-07-23T07:05:23.920Z,50
2017-07-23T07:06:24.632Z,35
2017-07-23T07:07:25.585Z,35
2017-07-23T07:08:26.293Z,50
2017-07-23T07:09:27.001Z,75
2017-07-23T07:10:27.705Z,85
2017-07-23T07:11:28.423Z,95
2017-07-23T07:12:29.133Z,135
2017-07-23T07:13:29.855Z,145
2017-07-23T07:14:30.563Z,150
2017-07-23T07:15:31.271Z,135
2017-07-23T07:16:31.975Z,115
2017-07-23T07:17:32.929Z,95
2017-07-23T07:18:33.635Z,110
2017-07-23T07:19:34.342Z,125
2017-07-23T07:20:35.052Z,135
2017-07-23T07:21:35.762Z,120
2017-07-23T07:22:36.725Z,115
2017-07-23T07:23:37.445Z,145
2017-07-23T07:24:38.153Z,180
2017-07-23T07:25:38.863Z,210
2017-07-23T07:26:39.569Z,210
2017-07-23T07:27:40.527Z,195
2017-07-23T07:28:41.234Z,180
2017-07-23T07:29:41.945Z,175
2017-07-23T07:30:42.649Z,170
2017-07-23T07:31:43.358Z,190
2017-07-23T07:32:44.313Z,195
2017-07-23T07:33:45.018Z,195
2017-07-23T07:34:45.726Z,205
2017-07-23T07:35:46.438Z,210
2017-07-23T07:36:47.144Z,225
2017-07-23T07:37:48.100Z,210
2017-07-23T07:38:48.805Z,210
2017-07-23T07:39:49.509Z,245
2017-07-23T07:40:50.216Z,265
2017-07-23T07:41:50.922Z,260
2017-07-23T07:42:51.884Z,215
2017-07-23T07:43:52.592Z,165
2017-07-23T07:44:53.297Z,155
2017-07-23T07:45:54.003Z,185
2017-07-23T07:46:54.725Z,190
2017-07-23T07:47:55.682Z,175
2017-07-23T07:48:56.392Z,175
2017-07-23T07:49:57.091Z,190
2017-07-23T07:50:57.798Z,210
2017-07-23T07:51:58.501Z,250
2017-07-23T07:52:59.461Z,260
2017-07-23T07:54:00.170Z,270
2017-07-23T07:55:00.879Z,265
2017-07-23T07:56:01.583Z,240
2017-07-23T07:57:02.292Z,225
2017-07-23T07:58:03.252Z,185
2017-07-23T07:59:03.953Z,155
2017-07-23T08:00:04.668Z,150
2017-07-23T08:01:05.376Z,170
2017-07-23T08:02:06.080Z,195
2017-07-23T08:03:07.038Z,220
2017-07-23T08:04:07.743Z,230
2017-07-23T08:05:08.457Z,240
2017-07-23T08:06:09.161Z,240
2017-07-23T08:07:09.873Z,240
2017-07-23T08:08:10.832Z,230
2017-07-23T08:09:11.545Z,230
2017-07-23T08:10:12.250Z,230
2017-07-23T08:11:12.960Z,235
2017-07-23T08:12:13.667Z,235
2017-07-23T08:13:14.625Z,225
2017-07-23T08:14:15.331Z,220
2017-07-23T08:15:16.038Z,225
2017-07-23T08:16:16.751Z,235
2017-07-23T08:17:17.458Z,245
2017-07-23T08:18:18.418Z,250
2017-07-23T08:19:19.120Z,255
2017-07-23T08:20:19.827Z,260
2017-07-23T08:21:20.550Z,260
2017-07-23T08:22:21.259Z,260
2017-07-23T08:23:22.212Z,250
2017-07-23T08:24:22.934Z,245
2017-07-23T08:25:23.648Z,225
2017-07-23T08:26:24.356Z,215
2017-07-23T08:27:25.062Z,210
2017-07-23T08:28:25.769Z,195
2017-07-23T08:29:26.474Z,220
2017-07-23T08:30:27.180Z,235
2017-07-23T08:31:27.888Z,245
2017-07-23T08:32:28.593Z,255
2017-07-23T08:33:29.549Z,260
2017-07-23T08:34:30.258Z,265
2017-07-23T08:35:30.966Z,270
2017-07-23T08:36:31.672Z,265
2017-07-23T08:37:32.380Z,265
2017-07-23T08:38:33.342Z,260
2017-07-23T08:39:34.053Z,265
2017-07-23T08:40:34.760Z,265
2017-07-23T08:41:35.470Z,270
2017-07-23T08:42:36.180Z,270
2017-07-23T08:43:37.138Z,260
2017-07-23T08:44:37.846Z,255
2017-07-23T08:45:38.546Z,260
2017-07-23T08:46:39.256Z,265
2017-07-23T08:47:39.964Z,265
2017-07-23T08:48:40.672Z,270
2017-07-23T08:49:41.383Z,280
2017-07-23T08:50:42.002Z,275
2017-07-23T08:51:42.790Z,270
2017-07-23T08:52:43.499Z,270
2017-07-23T08:53:44.454Z,270
2017-07-23T08:54:45.161Z,270
2017-07-23T08:55:45.867Z,270
2017-07-23T08:56:46.586Z,265
2017-07-23T08:57:47.293Z,265
2017-07-23T08:58:48.251Z,270
2017-07-23T08:59:48.960Z,270
2017-07-23T09:00:49.671Z,290
2017-07-23T09:01:50.380Z,295
2017-07-23T09:02:51.085Z,300
2017-07-23T09:03:52.041Z,300
2017-07-23T09:04:52.752Z,305
2017-07-23T09:05:53.470Z,285
2017-07-23T09:06:54.174Z,280
2017-07-23T09:07:54.880Z,285
2017-07-23T09:08:55.836Z,290
2017-07-23T09:09:56.541Z,290
2017-07-23T09:10:57.255Z,285
2017-07-23T09:11:57.963Z,265
2017-07-23T09:12:58.672Z,245
2017-07-23T09:13:59.634Z,245
2017-07-23T09:15:00.343Z,265
2017-07-23T09:16:01.074Z,275
2017-07-23T09:17:01.783Z,285
2017-07-23T09:18:02.499Z,305
2017-07-23T09:19:03.457Z,355
2017-07-23T09:20:04.165Z,355
2017-07-23T09:21:04.874Z,365
2017-07-23T09:22:05.598Z,370
2017-07-23T09:23:06.303Z,335
2017-07-23T09:24:07.256Z,305
2017-07-23T09:25:07.983Z,295
2017-07-23T09:26:08.692Z,295
2017-07-23T09:27:09.405Z,320
2017-07-23T09:28:10.115Z,335
2017-07-23T09:29:11.070Z,330
2017-07-23T09:30:11.771Z,300
2017-07-23T09:31:12.483Z,240
2017-07-23T09:32:13.190Z,220
2017-07-23T09:33:13.894Z,220
2017-07-23T09:34:14.607Z,245
2017-07-23T09:35:15.315Z,280
2017-07-23T09:36:16.028Z,310
2017-07-23T09:37:16.743Z,330
2017-07-23T09:38:17.451Z,350
2017-07-23T09:39:18.414Z,350
2017-07-23T09:40:19.127Z,375
2017-07-23T09:41:19.834Z,355
2017-07-23T09:42:20.549Z,340
2017-07-23T09:43:21.257Z,360
2017-07-23T09:44:22.222Z,355
2017-07-23T09:45:22.928Z,390
2017-07-23T09:46:23.632Z,360
2017-07-23T09:47:24.349Z,360
2017-07-23T09:48:25.061Z,375
2017-07-23T09:49:26.016Z,355
2017-07-23T09:50:26.725Z,360
2017-07-23T09:51:27.433Z,345
2017-07-23T09:52:28.137Z,320
2017-07-23T09:53:28.842Z,380
2017-07-23T09:54:29.803Z,405
2017-07-23T09:55:30.513Z,435
2017-07-23T09:56:31.222Z,395
2017-07-23T09:57:31.936Z,360
2017-07-23T09:58:32.644Z,350
2017-07-23T09:59:33.599Z,340
2017-07-23T10:00:34.308Z,390
2017-07-23T10:01:35.027Z,385
2017-07-23T10:02:35.738Z,330
2017-07-23T10:03:36.443Z,240
2017-07-23T10:04:37.405Z,165
2017-07-23T10:05:38.112Z,185
2017-07-23T10:06:38.814Z,215
2017-07-23T10:07:39.526Z,195
2017-07-23T10:08:40.233Z,180
2017-07-23T10:09:41.188Z,145
2017-07-23T10:10:41.893Z,115
2017-07-23T10:11:42.605Z,95
2017-07-23T10:12:43.315Z,90
2017-07-23T10:13:44.028Z,105
2017-07-23T10:14:44.994Z,145
2017-07-23T10:15:45.719Z,170
2017-07-23T10:16:46.424Z,165
2017-07-23T10:17:47.127Z,145
2017-07-23T10:18:47.844Z,155
2017-07-23T10:19:48.801Z,190
2017-07-23T10:20:49.509Z,240
2017-07-23T10:21:50.217Z,265
2017-07-23T10:22:50.924Z,220
2017-07-23T10:23:51.630Z,200
2017-07-23T10:24:52.358Z,205
2017-07-23T10:25:53.088Z,185
2017-07-23T10:26:53.802Z,190
2017-07-23T10:27:54.512Z,225
2017-07-23T10:28:55.220Z,250
2017-07-23T10:29:56.174Z,295
2017-07-23T10:30:56.881Z,330
2017-07-23T10:31:57.596Z,295
2017-07-23T10:32:58.309Z,255
2017-07-23T10:33:59.020Z,280
2017-07-23T10:34:59.991Z,295
2017-07-23T10:36:00.694Z,280
2017-07-23T10:37:01.402Z,245
2017-07-23T10:38:02.110Z,220
2017-07-23T10:39:02.818Z,225
2017-07-23T10:40:03.788Z,215
2017-07-23T10:41:04.498Z,190
2017-07-23T10:42:05.205Z,195
2017-07-23T10:43:05.912Z,225
2017-07-23T10:44:06.628Z,270
2017-07-23T10:45:07.335Z,305
2017-07-23T10:46:08.048Z,300
2017-07-23T10:47:08.758Z,325
2017-07-23T10:48:09.467Z,360
2017-07-23T10:49:10.176Z,430
2017-07-23T10:50:11.136Z,465
2017-07-23T10:51:11.843Z,455
2017-07-23T10:52:12.550Z,395
2017-07-23T10:53:13.253Z,470
2017-07-23T10:54:13.971Z,435
2017-07-23T10:55:14.929Z,405
2017-07-23T10:56:15.635Z,430
2017-07-23T10:57:16.351Z,505
2017-07-23T10:58:17.059Z,515
2017-07-23T10:59:17.767Z,440
2017-07-23T11:00:18.474Z,495
2017-07-23T11:01:19.181Z,475
2017-07-23T11:02:19.887Z,440
2017-07-23T11:03:20.599Z,480
2017-07-23T11:04:21.305Z,510
2017-07-23T11:05:22.268Z,455
2017-07-23T11:06:22.979Z,395
2017-07-23T11:07:23.689Z,410
2017-07-23T11:08:24.401Z,360
2017-07-23T11:09:25.107Z,305
2017-07-23T11:10:26.070Z,335
2017-07-23T11:11:26.776Z,380
2017-07-23T11:12:27.492Z,320
2017-07-23T11:13:28.199Z,300
2017-07-23T11:14:28.915Z,280
2017-07-23T11:15:29.875Z,275
2017-07-23T11:16:30.603Z,235
2017-07-23T11:17:31.322Z,225
2017-07-23T11:18:32.037Z,275
2017-07-23T11:19:32.747Z,305
2017-07-23T11:20:33.712Z,290
2017-07-23T11:21:34.421Z,300
2017-07-23T11:22:35.126Z,335
2017-07-23T11:23:35.834Z,355
2017-07-23T11:24:36.539Z,350
2017-07-23T11:25:37.499Z,325
2017-07-23T11:26:38.213Z,340
2017-07-23T11:27:38.927Z,380
2017-07-23T11:28:39.634Z,355
2017-07-23T11:29:40.339Z,335
2017-07-23T11:30:41.300Z,310
2017-07-23T11:31:42.025Z,280
2017-07-23T11:32:42.742Z,285
2017-07-23T11:33:43.452Z,330
2017-07-23T11:34:44.159Z,405
2017-07-23T11:35:45.119Z,425
2017-07-23T11:36:45.827Z,420
2017-07-23T11:37:46.553Z,450
2017-07-23T11:38:47.264Z,445
2017-07-23T11:39:47.994Z,395
2017-07-23T11:40:48.962Z,410
2017-07-23T11:41:49.670Z,385
2017-07-23T11:42:50.391Z,420
2017-07-23T11:43:51.104Z,475
2017-07-23T11:44:51.834Z,480
2017-07-23T11:45:52.810Z,510
2017-07-23T11:46:53.519Z,450
2017-07-23T11:47:54.232Z,410
2017-07-23T11:48:54.943Z,405
2017-07-23T11:49:55.680Z,405
2017-07-23T11:50:56.650Z,390
2017-07-23T11:51:57.364Z,380
2017-07-23T11:52:58.071Z,345
2017-07-23T11:53:58.781Z,300
2017-07-23T11:54:59.488Z,300
2017-07-23T11:56:00.447Z,270
2017-07-23T11:57:01.156Z,280
2017-07-23T11:58:01.864Z,240
2017-07-23T11:59:02.576Z,200
2017-07-23T12:00:03.284Z,170
2017-07-23T12:01:04.245Z,140
2017-07-23T12:02:04.953Z,115
2017-07-23T12:03:05.661Z,115
2017-07-23T12:04:06.377Z,115
2017-07-23T12:05:07.082Z,120
2017-07-23T12:06:08.044Z,120
2017-07-23T12:07:08.761Z,120
2017-07-23T12:08:09.466Z,120
2017-07-23T12:09:10.183Z,110
2017-07-23T12:10:10.896Z,115
2017-07-23T12:11:11.856Z,115
2017-07-23T12:12:12.564Z,125
2017-07-23T12:13:13.269Z,135
2017-07-23T12:14:13.991Z,135
2017-07-23T12:15:14.716Z,145
2017-07-23T12:16:15.670Z,175
2017-07-23T12:17:16.376Z,180
2017-07-23T12:18:17.084Z,150
2017-07-23T12:19:17.799Z,130
2017-07-23T12:20:18.511Z,125
2017-07-23T12:21:19.472Z,120
2017-07-23T12:22:20.182Z,105
2017-07-23T12:23:20.891Z,110
2017-07-23T12:24:21.599Z,120
2017-07-23T12:25:22.304Z,120
2017-07-23T12:26:23.257Z,115
2017-07-23T12:27:23.962Z,120
2017-07-23T12:28:24.674Z,135
2017-07-23T12:29:25.381Z,160
2017-07-23T12:30:26.088Z,165
2017-07-23T12:31:27.041Z,175
2017-07-23T12:32:27.752Z,180
2017-07-23T12:33:28.459Z,210
2017-07-23T12:34:29.179Z,335
2017-07-23T12:35:29.899Z,465
2017-07-23T12:36:30.625Z,515
2017-07-23T12:37:31.333Z,480
2017-07-23T12:38:32.040Z,545
2017-07-23T12:39:32.750Z,580
2017-07-23T12:40:33.459Z,610
2017-07-23T12:41:34.424Z,685
2017-07-23T12:42:35.135Z,590
2017-07-23T12:43:35.843Z,655
2017-07-23T12:44:36.557Z,630
2017-07-23T12:45:37.263Z,615
2017-07-23T12:46:38.219Z,760
2017-07-23T12:47:38.927Z,700
2017-07-23T12:48:39.635Z,585
2017-07-23T12:49:40.343Z,610
2017-07-23T12:50:41.056Z,590
2017-07-23T12:51:42.014Z,670
2017-07-23T12:52:42.722Z,655
2017-07-23T12:53:43.432Z,610
2017-07-23T12:54:44.144Z,575
2017-07-23T12:55:44.857Z,570
2017-07-23T12:56:45.827Z,540
2017-07-23T12:57:46.534Z,555
2017-07-23T12:58:47.241Z,585
2017-07-23T12:59:47.950Z,575
2017-07-23T13:00:48.669Z,575
2017-07-23T13:01:49.377Z,625
2017-07-23T13:02:50.088Z,660
2017-07-23T13:03:50.804Z,670
2017-07-23T13:04:51.521Z,635
2017-07-23T13:05:52.229Z,445
2017-07-23T13:06:52.935Z,350
2017-07-23T13:07:53.657Z,345
2017-07-23T13:08:54.305Z,425
2017-07-23T13:09:55.086Z,540
2017-07-23T13:10:55.798Z,630
2017-07-23T13:11:56.507Z,590
2017-07-23T13:12:57.218Z,575
2017-07-23T13:13:57.932Z,595
2017-07-23T13:14:58.649Z,565
2017-07-23T13:15:59.367Z,650
2017-07-23T13:17:00.078Z,615
2017-07-23T13:18:00.791Z,650
2017-07-23T13:19:01.755Z,660
2017-07-23T13:20:02.471Z,650
2017-07-23T13:21:03.180Z,555
2017-07-23T13:22:03.889Z,605
2017-07-23T13:23:04.602Z,610
2017-07-23T13:24:05.571Z,610
2017-07-23T13:25:06.285Z,605
2017-07-23T13:26:06.994Z,590
2017-07-23T13:27:07.703Z,620
2017-07-23T13:28:08.416Z,665
2017-07-23T13:29:09.378Z,675
2017-07-23T13:30:10.097Z,645
2017-07-23T13:31:10.806Z,620
2017-07-23T13:32:11.516Z,635
2017-07-23T13:33:12.228Z,640
2017-07-23T13:34:13.197Z,565
2017-07-23T13:35:13.911Z,335
2017-07-23T13:36:14.618Z,280
2017-07-23T13:37:15.328Z,260
2017-07-23T13:38:16.033Z,260
2017-07-23T13:39:16.995Z,270
2017-07-23T13:40:17.711Z,255
2017-07-23T13:41:18.420Z,310
2017-07-23T13:42:19.135Z,360
2017-07-23T13:43:19.846Z,435
2017-07-23T13:44:20.566Z,620
2017-07-23T13:45:21.280Z,650
2017-07-23T13:46:21.988Z,615
2017-07-23T13:47:22.702Z,675
2017-07-23T13:48:23.420Z,390
2017-07-23T13:49:24.376Z,270
2017-07-23T13:50:25.086Z,245
2017-07-23T13:51:25.797Z,220
2017-07-23T13:52:26.510Z,215
2017-07-23T13:53:27.220Z,200
2017-07-23T13:54:28.182Z,185
2017-07-23T13:55:28.889Z,175
2017-07-23T13:56:29.597Z,165
2017-07-23T13:57:30.308Z,160
2017-07-23T13:58:31.012Z,185
2017-07-23T13:59:31.968Z,195
2017-07-23T14:00:32.674Z,200
2017-07-23T14:01:33.384Z,275
2017-07-23T14:02:34.103Z,1220
2017-07-23T14:03:34.809Z,590
2017-07-23T14:04:35.769Z,655
2017-07-23T14:05:36.482Z,755
2017-07-23T14:06:37.218Z,460
2017-07-23T14:07:37.935Z,500
2017-07-23T14:08:38.660Z,455
2017-07-23T14:09:39.622Z,380
2017-07-23T14:10:40.337Z,420
2017-07-23T14:11:41.050Z,420
2017-07-23T14:12:41.761Z,380
2017-07-23T14:13:42.473Z,545
2017-07-23T14:14:43.442Z,625
2017-07-23T14:15:44.155Z,1235
2017-07-23T14:16:44.865Z,880
2017-07-23T14:17:45.573Z,690